Wendelin, Illinois
Current Conditions -  °F | °C
As of 4:35 PM on Monday 24 Nov 2014 (Local Time) from KOLY Reporting Station
Clear Clear  
Wind Chill: 30°   Ceiling: Unl
Heat Index: 37°   Visibility: 10mi
Dew Point: 30°   Wind: 10mph
Humidity: 75%   Direction: 260°W
Pressure: 29.84"   Gusts: 17mph
Location:  38.9706°N, 88.1894°W
Report Text: KOLY 242235Z AUTO 26009G15KT 10SM CLR 03/M01 A2984 RMK AO2
Loading
Personal Weather Stations






























Interactive Weather Map New forecast layout! Learn more

10-Day Weather Forecast

Advertisements
Track Severe Weather on mobile